sensor_id;sensor_type;location;lat;lon;timestamp;P1;durP1;ratioP1;P2;durP2;ratioP2
55813;SDS011;41743;43.012;-0.110;2022-10-31T00:00:50;14.07;;;4.47;;
55813;SDS011;41743;43.012;-0.110;2022-10-31T00:03:16;20.23;;;4.90;;
55813;SDS011;41743;43.012;-0.110;2022-10-31T00:05:43;10.00;;;3.55;;
55813;SDS011;41743;43.012;-0.110;2022-10-31T00:08:09;12.95;;;4.63;;
55813;SDS011;41743;43.012;-0.110;2022-10-31T00:10:39;11.95;;;3.80;;
55813;SDS011;41743;43.012;-0.110;2022-10-31T00:13:06;11.25;;;4.03;;
55813;SDS011;41743;43.012;-0.110;2022-10-31T00:15:32;11.48;;;4.47;;
55813;SDS011;41743;43.012;-0.110;2022-10-31T00:17:59;23.13;;;5.90;;
55813;SDS011;41743;43.012;-0.110;2022-10-31T00:20:25;14.80;;;4.40;;
55813;SDS011;41743;43.012;-0.110;2022-10-31T00:22:51;12.13;;;3.60;;
55813;SDS011;41743;43.012;-0.110;2022-10-31T00:25:17;15.27;;;4.15;;
55813;SDS011;41743;43.012;-0.110;2022-10-31T00:27:45;10.82;;;4.40;;
55813;SDS011;41743;43.012;-0.110;2022-10-31T00:30:11;12.45;;;4.35;;
55813;SDS011;41743;43.012;-0.110;2022-10-31T00:32:37;7.82;;;3.30;;
55813;SDS011;41743;43.012;-0.110;2022-10-31T00:35:03;16.50;;;4.13;;
55813;SDS011;41743;43.012;-0.110;2022-10-31T00:37:30;12.25;;;4.43;;
55813;SDS011;41743;43.012;-0.110;2022-10-31T00:39:56;11.60;;;4.18;;
55813;SDS011;41743;43.012;-0.110;2022-10-31T00:42:22;12.45;;;4.22;;
55813;SDS011;41743;43.012;-0.110;2022-10-31T00:44:48;8.52;;;3.67;;
55813;SDS011;41743;43.012;-0.110;2022-10-31T00:47:14;14.52;;;4.15;;
55813;SDS011;41743;43.012;-0.110;2022-10-31T00:49:40;13.55;;;4.72;;
55813;SDS011;41743;43.012;-0.110;2022-10-31T00:52:06;16.58;;;4.35;;
55813;SDS011;41743;43.012;-0.110;2022-10-31T00:54:32;11.10;;;3.80;;
55813;SDS011;41743;43.012;-0.110;2022-10-31T00:56:58;10.32;;;3.58;;
55813;SDS011;41743;43.012;-0.110;2022-10-31T00:59:24;15.43;;;4.03;;
55813;SDS011;41743;43.012;-0.110;2022-10-31T01:01:50;16.27;;;4.47;;
55813;SDS011;41743;43.012;-0.110;2022-10-31T01:04:16;10.82;;;4.03;;
55813;SDS011;41743;43.012;-0.110;2022-10-31T01:06:42;14.00;;;4.60;;
55813;SDS011;41743;43.012;-0.110;2022-10-31T01:09:08;14.13;;;4.20;;
55813;SDS011;41743;43.012;-0.110;2022-10-31T01:11:34;14.82;;;4.07;;
55813;SDS011;41743;43.012;-0.110;2022-10-31T01:14:01;14.10;;;4.10;;
55813;SDS011;41743;43.012;-0.110;2022-10-31T01:16:27;12.02;;;4.22;;
55813;SDS011;41743;43.012;-0.110;2022-10-31T01:18:54;9.88;;;3.45;;
55813;SDS011;41743;43.012;-0.110;2022-10-31T01:21:25;15.35;;;4.68;;
55813;SDS011;41743;43.012;-0.110;2022-10-31T01:23:54;10.57;;;4.00;;
55813;SDS011;41743;43.012;-0.110;2022-10-31T01:26:25;10.63;;;4.15;;
55813;SDS011;41743;43.012;-0.110;2022-10-31T01:28:54;10.40;;;3.58;;
55813;SDS011;41743;43.012;-0.110;2022-10-31T01:31:21;13.15;;;3.58;;
55813;SDS011;41743;43.012;-0.110;2022-10-31T01:33:47;11.88;;;3.80;;
55813;SDS011;41743;43.012;-0.110;2022-10-31T01:36:15;12.70;;;3.53;;
55813;SDS011;41743;43.012;-0.110;2022-10-31T01:38:42;7.35;;;4.18;;
55813;SDS011;41743;43.012;-0.110;2022-10-31T01:41:09;14.73;;;3.78;;
55813;SDS011;41743;43.012;-0.110;2022-10-31T01:43:49;10.38;;;3.90;;
55813;SDS011;41743;43.012;-0.110;2022-10-31T01:46:18;16.02;;;4.82;;
55813;SDS011;41743;43.012;-0.110;2022-10-31T01:48:45;13.63;;;4.03;;
55813;SDS011;41743;43.012;-0.110;2022-10-31T01:51:11;15.75;;;5.30;;
55813;SDS011;41743;43.012;-0.110;2022-10-31T01:53:38;20.20;;;4.70;;
55813;SDS011;41743;43.012;-0.110;2022-10-31T01:56:04;9.50;;;3.78;;
55813;SDS011;41743;43.012;-0.110;2022-10-31T01:58:31;10.90;;;3.63;;
55813;SDS011;41743;43.012;-0.110;2022-10-31T02:00:59;16.05;;;4.78;;
55813;SDS011;41743;43.012;-0.110;2022-10-31T02:03:26;11.85;;;4.00;;
55813;SDS011;41743;43.012;-0.110;2022-10-31T02:05:55;9.23;;;3.65;;
55813;SDS011;41743;43.012;-0.110;2022-10-31T02:08:26;9.98;;;3.80;;
55813;SDS011;41743;43.012;-0.110;2022-10-31T02:10:52;11.57;;;3.33;;
55813;SDS011;41743;43.012;-0.110;2022-10-31T02:13:19;8.93;;;2.90;;
55813;SDS011;41743;43.012;-0.110;2022-10-31T02:15:47;10.38;;;3.92;;
55813;SDS011;41743;43.012;-0.110;2022-10-31T02:18:13;11.60;;;3.78;;
55813;SDS011;41743;43.012;-0.110;2022-10-31T02:20:42;13.85;;;3.20;;
55813;SDS011;41743;43.012;-0.110;2022-10-31T02:23:31;15.35;;;4.25;;
55813;SDS011;41743;43.012;-0.110;2022-10-31T02:31:01;10.13;;;3.72;;
55813;SDS011;41743;43.012;-0.110;2022-10-31T02:38:36;6.78;;;3.08;;
55813;SDS011;41743;43.012;-0.110;2022-10-31T02:41:07;13.73;;;3.50;;
55813;SDS011;41743;43.012;-0.110;2022-10-31T02:46:23;8.75;;;2.78;;
55813;SDS011;41743;43.012;-0.110;2022-10-31T02:48:48;9.52;;;3.42;;
55813;SDS011;41743;43.012;-0.110;2022-10-31T02:51:16;7.80;;;2.88;;
55813;SDS011;41743;43.012;-0.110;2022-10-31T02:53:43;8.63;;;2.75;;
55813;SDS011;41743;43.012;-0.110;2022-10-31T02:56:13;7.13;;;3.08;;
55813;SDS011;41743;43.012;-0.110;2022-10-31T02:58:41;8.95;;;2.92;;
55813;SDS011;41743;43.012;-0.110;2022-10-31T03:04:11;7.53;;;2.67;;
55813;SDS011;41743;43.012;-0.110;2022-10-31T03:06:41;16.00;;;3.53;;
55813;SDS011;41743;43.012;-0.110;2022-10-31T03:09:23;7.38;;;2.47;;
55813;SDS011;41743;43.012;-0.110;2022-10-31T03:11:55;8.15;;;2.83;;
55813;SDS011;41743;43.012;-0.110;2022-10-31T03:14:48;13.75;;;3.60;;
55813;SDS011;41743;43.012;-0.110;2022-10-31T03:17:13;8.93;;;2.58;;
55813;SDS011;41743;43.012;-0.110;2022-10-31T03:19:45;13.27;;;2.97;;
55813;SDS011;41743;43.012;-0.110;2022-10-31T03:22:16;5.85;;;2.42;;
55813;SDS011;41743;43.012;-0.110;2022-10-31T03:24:43;4.80;;;1.40;;
55813;SDS011;41743;43.012;-0.110;2022-10-31T03:27:10;9.65;;;2.35;;
55813;SDS011;41743;43.012;-0.110;2022-10-31T03:29:37;9.00;;;2.70;;
55813;SDS011;41743;43.012;-0.110;2022-10-31T03:32:08;7.22;;;2.45;;
55813;SDS011;41743;43.012;-0.110;2022-10-31T03:34:36;6.38;;;2.30;;
55813;SDS011;41743;43.012;-0.110;2022-10-31T03:37:03;7.35;;;2.10;;
55813;SDS011;41743;43.012;-0.110;2022-10-31T03:39:30;6.88;;;1.88;;
55813;SDS011;41743;43.012;-0.110;2022-10-31T03:42:00;4.82;;;1.50;;
55813;SDS011;41743;43.012;-0.110;2022-10-31T03:44:28;6.60;;;2.42;;
55813;SDS011;41743;43.012;-0.110;2022-10-31T03:46:55;7.63;;;2.13;;
55813;SDS011;41743;43.012;-0.110;2022-10-31T03:49:21;5.90;;;1.90;;
55813;SDS011;41743;43.012;-0.110;2022-10-31T03:51:50;3.53;;;1.58;;
55813;SDS011;41743;43.012;-0.110;2022-10-31T03:59:41;7.95;;;2.25;;
55813;SDS011;41743;43.012;-0.110;2022-10-31T04:02:10;3.60;;;1.40;;
55813;SDS011;41743;43.012;-0.110;2022-10-31T04:04:38;2.55;;;1.25;;
55813;SDS011;41743;43.012;-0.110;2022-10-31T04:07:05;3.67;;;1.02;;
55813;SDS011;41743;43.012;-0.110;2022-10-31T04:09:32;5.88;;;1.30;;
55813;SDS011;41743;43.012;-0.110;2022-10-31T04:11:59;5.20;;;1.50;;
55813;SDS011;41743;43.012;-0.110;2022-10-31T04:14:26;9.43;;;1.90;;
55813;SDS011;41743;43.012;-0.110;2022-10-31T04:16:53;6.18;;;1.13;;
55813;SDS011;41743;43.012;-0.110;2022-10-31T04:19:19;6.25;;;1.60;;
55813;SDS011;41743;43.012;-0.110;2022-10-31T04:21:45;4.15;;;1.10;;
55813;SDS011;41743;43.012;-0.110;2022-10-31T04:24:12;4.38;;;1.30;;
55813;SDS011;41743;43.012;-0.110;2022-10-31T04:26:38;2.40;;;0.95;;
55813;SDS011;41743;43.012;-0.110;2022-10-31T04:29:04;4.10;;;1.15;;
55813;SDS011;41743;43.012;-0.110;2022-10-31T04:31:30;6.07;;;1.98;;
55813;SDS011;41743;43.012;-0.110;2022-10-31T04:33:56;4.35;;;1.38;;
55813;SDS011;41743;43.012;-0.110;2022-10-31T04:36:22;2.20;;;1.20;;
55813;SDS011;41743;43.012;-0.110;2022-10-31T04:38:48;3.55;;;1.50;;
55813;SDS011;41743;43.012;-0.110;2022-10-31T04:41:14;4.50;;;1.17;;
55813;SDS011;41743;43.012;-0.110;2022-10-31T04:43:40;4.30;;;1.20;;
55813;SDS011;41743;43.012;-0.110;2022-10-31T04:46:06;5.75;;;1.30;;
55813;SDS011;41743;43.012;-0.110;2022-10-31T04:48:32;5.65;;;1.25;;
55813;SDS011;41743;43.012;-0.110;2022-10-31T04:50:59;6.40;;;1.50;;
55813;SDS011;41743;43.012;-0.110;2022-10-31T04:53:25;3.05;;;1.38;;
55813;SDS011;41743;43.012;-0.110;2022-10-31T04:55:51;2.97;;;1.10;;
55813;SDS011;41743;43.012;-0.110;2022-10-31T04:58:18;2.67;;;1.40;;
55813;SDS011;41743;43.012;-0.110;2022-10-31T05:00:44;5.75;;;1.52;;
55813;SDS011;41743;43.012;-0.110;2022-10-31T05:03:10;5.00;;;1.40;;
55813;SDS011;41743;43.012;-0.110;2022-10-31T05:05:36;3.88;;;1.48;;
55813;SDS011;41743;43.012;-0.110;2022-10-31T05:08:02;6.38;;;1.58;;
55813;SDS011;41743;43.012;-0.110;2022-10-31T05:10:29;4.50;;;1.80;;
55813;SDS011;41743;43.012;-0.110;2022-10-31T05:12:56;6.78;;;1.80;;
55813;SDS011;41743;43.012;-0.110;2022-10-31T05:15:24;5.28;;;1.63;;
55813;SDS011;41743;43.012;-0.110;2022-10-31T05:17:50;6.55;;;1.63;;
55813;SDS011;41743;43.012;-0.110;2022-10-31T05:20:17;7.65;;;1.42;;
55813;SDS011;41743;43.012;-0.110;2022-10-31T05:22:45;4.55;;;1.55;;
55813;SDS011;41743;43.012;-0.110;2022-10-31T05:25:12;3.67;;;1.50;;
55813;SDS011;41743;43.012;-0.110;2022-10-31T05:27:41;5.22;;;1.80;;
55813;SDS011;41743;43.012;-0.110;2022-10-31T05:30:08;8.70;;;1.73;;
55813;SDS011;41743;43.012;-0.110;2022-10-31T05:32:42;6.53;;;2.60;;
55813;SDS011;41743;43.012;-0.110;2022-10-31T05:35:08;4.65;;;1.80;;
55813;SDS011;41743;43.012;-0.110;2022-10-31T05:37:35;5.93;;;1.95;;
55813;SDS011;41743;43.012;-0.110;2022-10-31T05:40:02;5.38;;;1.45;;
55813;SDS011;41743;43.012;-0.110;2022-10-31T05:42:28;5.65;;;1.60;;
55813;SDS011;41743;43.012;-0.110;2022-10-31T05:44:54;5.68;;;1.73;;
55813;SDS011;41743;43.012;-0.110;2022-10-31T05:47:21;5.10;;;1.80;;
55813;SDS011;41743;43.012;-0.110;2022-10-31T05:49:47;5.55;;;2.35;;
55813;SDS011;41743;43.012;-0.110;2022-10-31T05:52:13;4.50;;;1.92;;
55813;SDS011;41743;43.012;-0.110;2022-10-31T05:54:39;4.72;;;1.73;;
55813;SDS011;41743;43.012;-0.110;2022-10-31T05:57:05;5.10;;;1.80;;
55813;SDS011;41743;43.012;-0.110;2022-10-31T05:59:31;5.82;;;1.40;;
55813;SDS011;41743;43.012;-0.110;2022-10-31T06:01:57;4.05;;;1.67;;
55813;SDS011;41743;43.012;-0.110;2022-10-31T06:04:23;6.70;;;1.80;;
55813;SDS011;41743;43.012;-0.110;2022-10-31T06:06:50;6.68;;;1.75;;
55813;SDS011;41743;43.012;-0.110;2022-10-31T06:09:16;6.53;;;1.85;;
55813;SDS011;41743;43.012;-0.110;2022-10-31T06:11:42;4.70;;;1.70;;
55813;SDS011;41743;43.012;-0.110;2022-10-31T06:14:08;7.45;;;2.25;;
55813;SDS011;41743;43.012;-0.110;2022-10-31T06:16:34;7.43;;;2.15;;
55813;SDS011;41743;43.012;-0.110;2022-10-31T06:19:00;5.85;;;2.10;;
55813;SDS011;41743;43.012;-0.110;2022-10-31T06:21:26;5.05;;;1.83;;
55813;SDS011;41743;43.012;-0.110;2022-10-31T06:23:52;8.32;;;1.83;;
55813;SDS011;41743;43.012;-0.110;2022-10-31T06:26:18;7.38;;;1.80;;
55813;SDS011;41743;43.012;-0.110;2022-10-31T06:28:44;7.43;;;2.22;;
55813;SDS011;41743;43.012;-0.110;2022-10-31T06:31:11;7.93;;;2.17;;
55813;SDS011;41743;43.012;-0.110;2022-10-31T06:33:37;7.38;;;1.85;;
55813;SDS011;41743;43.012;-0.110;2022-10-31T06:36:03;6.88;;;2.33;;
55813;SDS011;41743;43.012;-0.110;2022-10-31T06:38:29;13.20;;;2.10;;
55813;SDS011;41743;43.012;-0.110;2022-10-31T06:40:55;8.75;;;2.28;;
55813;SDS011;41743;43.012;-0.110;2022-10-31T06:43:21;5.95;;;1.98;;
55813;SDS011;41743;43.012;-0.110;2022-10-31T06:45:47;5.55;;;1.58;;
55813;SDS011;41743;43.012;-0.110;2022-10-31T06:48:13;6.28;;;1.73;;
55813;SDS011;41743;43.012;-0.110;2022-10-31T06:50:39;9.73;;;2.28;;
55813;SDS011;41743;43.012;-0.110;2022-10-31T06:53:05;8.77;;;1.83;;
55813;SDS011;41743;43.012;-0.110;2022-10-31T06:55:32;6.15;;;1.88;;
55813;SDS011;41743;43.012;-0.110;2022-10-31T06:57:58;6.10;;;2.25;;
55813;SDS011;41743;43.012;-0.110;2022-10-31T07:00:25;6.22;;;2.15;;
55813;SDS011;41743;43.012;-0.110;2022-10-31T07:02:55;6.20;;;1.95;;
55813;SDS011;41743;43.012;-0.110;2022-10-31T07:05:22;5.30;;;2.17;;
55813;SDS011;41743;43.012;-0.110;2022-10-31T07:07:51;6.18;;;2.28;;
55813;SDS011;41743;43.012;-0.110;2022-10-31T07:10:17;8.95;;;1.80;;
55813;SDS011;41743;43.012;-0.110;2022-10-31T07:12:43;8.02;;;1.95;;
55813;SDS011;41743;43.012;-0.110;2022-10-31T07:15:10;10.77;;;2.15;;
55813;SDS011;41743;43.012;-0.110;2022-10-31T07:17:36;7.22;;;1.80;;
55813;SDS011;41743;43.012;-0.110;2022-10-31T07:20:02;9.88;;;2.20;;
55813;SDS011;41743;43.012;-0.110;2022-10-31T07:22:34;7.90;;;2.40;;
55813;SDS011;41743;43.012;-0.110;2022-10-31T07:25:01;10.23;;;2.20;;
55813;SDS011;41743;43.012;-0.110;2022-10-31T07:27:27;10.23;;;2.00;;
55813;SDS011;41743;43.012;-0.110;2022-10-31T07:29:53;7.00;;;1.95;;
55813;SDS011;41743;43.012;-0.110;2022-10-31T07:32:19;8.88;;;1.90;;
55813;SDS011;41743;43.012;-0.110;2022-10-31T07:34:45;9.57;;;2.45;;
55813;SDS011;41743;43.012;-0.110;2022-10-31T07:37:11;10.32;;;1.88;;
55813;SDS011;41743;43.012;-0.110;2022-10-31T07:39:37;7.22;;;1.80;;
55813;SDS011;41743;43.012;-0.110;2022-10-31T07:42:03;8.93;;;1.83;;
55813;SDS011;41743;43.012;-0.110;2022-10-31T07:44:29;5.15;;;1.80;;
55813;SDS011;41743;43.012;-0.110;2022-10-31T07:46:56;4.95;;;2.30;;
55813;SDS011;41743;43.012;-0.110;2022-10-31T07:49:22;7.55;;;2.05;;
55813;SDS011;41743;43.012;-0.110;2022-10-31T07:51:50;5.88;;;2.40;;
55813;SDS011;41743;43.012;-0.110;2022-10-31T07:54:16;7.45;;;1.92;;
55813;SDS011;41743;43.012;-0.110;2022-10-31T07:56:42;10.38;;;1.90;;
55813;SDS011;41743;43.012;-0.110;2022-10-31T07:59:08;10.60;;;3.20;;
55813;SDS011;41743;43.012;-0.110;2022-10-31T08:01:34;6.88;;;2.28;;
55813;SDS011;41743;43.012;-0.110;2022-10-31T08:04:00;7.78;;;2.40;;
55813;SDS011;41743;43.012;-0.110;2022-10-31T08:06:26;7.78;;;1.98;;
55813;SDS011;41743;43.012;-0.110;2022-10-31T08:08:52;7.40;;;1.70;;
55813;SDS011;41743;43.012;-0.110;2022-10-31T08:11:18;9.15;;;2.63;;
55813;SDS011;41743;43.012;-0.110;2022-10-31T08:13:46;10.98;;;1.90;;
55813;SDS011;41743;43.012;-0.110;2022-10-31T08:16:12;8.30;;;2.15;;
55813;SDS011;41743;43.012;-0.110;2022-10-31T08:18:38;4.18;;;1.65;;
55813;SDS011;41743;43.012;-0.110;2022-10-31T08:21:04;6.28;;;1.98;;
55813;SDS011;41743;43.012;-0.110;2022-10-31T08:23:30;7.25;;;1.85;;
55813;SDS011;41743;43.012;-0.110;2022-10-31T08:25:57;8.20;;;2.22;;
55813;SDS011;41743;43.012;-0.110;2022-10-31T08:28:23;6.57;;;2.35;;
55813;SDS011;41743;43.012;-0.110;2022-10-31T08:30:49;8.73;;;2.05;;
55813;SDS011;41743;43.012;-0.110;2022-10-31T08:33:16;8.75;;;2.70;;
55813;SDS011;41743;43.012;-0.110;2022-10-31T08:35:43;7.00;;;1.63;;
55813;SDS011;41743;43.012;-0.110;2022-10-31T08:38:10;4.95;;;2.50;;
55813;SDS011;41743;43.012;-0.110;2022-10-31T08:40:36;15.02;;;1.80;;
55813;SDS011;41743;43.012;-0.110;2022-10-31T08:43:03;6.70;;;2.00;;
55813;SDS011;41743;43.012;-0.110;2022-10-31T08:45:30;7.80;;;1.95;;
55813;SDS011;41743;43.012;-0.110;2022-10-31T08:48:00;12.40;;;2.67;;
55813;SDS011;41743;43.012;-0.110;2022-10-31T08:50:27;8.80;;;1.58;;
55813;SDS011;41743;43.012;-0.110;2022-10-31T08:52:59;6.85;;;1.83;;
55813;SDS011;41743;43.012;-0.110;2022-10-31T08:55:25;7.90;;;2.03;;
55813;SDS011;41743;43.012;-0.110;2022-10-31T08:57:55;8.07;;;2.60;;
55813;SDS011;41743;43.012;-0.110;2022-10-31T09:00:21;11.60;;;2.65;;
55813;SDS011;41743;43.012;-0.110;2022-10-31T09:02:47;8.05;;;2.75;;
55813;SDS011;41743;43.012;-0.110;2022-10-31T09:05:13;5.75;;;1.70;;
55813;SDS011;41743;43.012;-0.110;2022-10-31T09:07:39;12.07;;;1.90;;
55813;SDS011;41743;43.012;-0.110;2022-10-31T09:10:05;7.47;;;1.83;;
55813;SDS011;41743;43.012;-0.110;2022-10-31T09:12:31;3.63;;;1.10;;
55813;SDS011;41743;43.012;-0.110;2022-10-31T09:14:57;8.70;;;3.15;;
55813;SDS011;41743;43.012;-0.110;2022-10-31T09:17:25;13.57;;;3.65;;
55813;SDS011;41743;43.012;-0.110;2022-10-31T09:19:51;8.18;;;1.95;;
55813;SDS011;41743;43.012;-0.110;2022-10-31T09:22:17;9.90;;;1.52;;
55813;SDS011;41743;43.012;-0.110;2022-10-31T09:24:43;7.68;;;1.23;;
55813;SDS011;41743;43.012;-0.110;2022-10-31T09:27:09;6.55;;;1.98;;
55813;SDS011;41743;43.012;-0.110;2022-10-31T09:29:36;4.63;;;1.05;;
55813;SDS011;41743;43.012;-0.110;2022-10-31T09:32:02;4.20;;;1.50;;
55813;SDS011;41743;43.012;-0.110;2022-10-31T09:34:28;3.58;;;1.33;;
55813;SDS011;41743;43.012;-0.110;2022-10-31T09:36:54;7.25;;;1.60;;
55813;SDS011;41743;43.012;-0.110;2022-10-31T09:39:20;7.80;;;1.50;;
55813;SDS011;41743;43.012;-0.110;2022-10-31T09:49:50;7.20;;;1.75;;
55813;SDS011;41743;43.012;-0.110;2022-10-31T09:52:21;5.00;;;1.58;;
55813;SDS011;41743;43.012;-0.110;2022-10-31T09:55:00;7.05;;;1.58;;
55813;SDS011;41743;43.012;-0.110;2022-10-31T09:57:34;5.55;;;1.20;;
55813;SDS011;41743;43.012;-0.110;2022-10-31T10:00:03;3.25;;;1.20;;
55813;SDS011;41743;43.012;-0.110;2022-10-31T10:02:32;6.28;;;1.33;;
55813;SDS011;41743;43.012;-0.110;2022-10-31T10:05:04;7.45;;;1.52;;
55813;SDS011;41743;43.012;-0.110;2022-10-31T10:10:23;5.47;;;1.23;;
55813;SDS011;41743;43.012;-0.110;2022-10-31T10:17:54;4.22;;;1.13;;
55813;SDS011;41743;43.012;-0.110;2022-10-31T10:25:40;8.40;;;1.55;;
55813;SDS011;41743;43.012;-0.110;2022-10-31T10:28:17;4.80;;;1.10;;
55813;SDS011;41743;43.012;-0.110;2022-10-31T10:30:50;4.68;;;1.38;;
55813;SDS011;41743;43.012;-0.110;2022-10-31T10:33:23;4.55;;;1.10;;
55813;SDS011;41743;43.012;-0.110;2022-10-31T10:35:52;5.55;;;1.13;;
55813;SDS011;41743;43.012;-0.110;2022-10-31T10:40:45;3.75;;;1.02;;
55813;SDS011;41743;43.012;-0.110;2022-10-31T10:43:19;9.05;;;1.55;;
55813;SDS011;41743;43.012;-0.110;2022-10-31T10:45:49;7.87;;;1.67;;
55813;SDS011;41743;43.012;-0.110;2022-10-31T10:48:42;7.70;;;1.00;;
55813;SDS011;41743;43.012;-0.110;2022-10-31T10:59:16;6.18;;;1.10;;
55813;SDS011;41743;43.012;-0.110;2022-10-31T11:01:43;5.53;;;1.25;;
55813;SDS011;41743;43.012;-0.110;2022-10-31T11:04:43;8.23;;;1.30;;
55813;SDS011;41743;43.012;-0.110;2022-10-31T11:07:03;6.88;;;1.50;;
55813;SDS011;41743;43.012;-0.110;2022-10-31T11:09:30;3.05;;;1.17;;
55813;SDS011;41743;43.012;-0.110;2022-10-31T11:11:56;6.13;;;1.23;;
55813;SDS011;41743;43.012;-0.110;2022-10-31T11:14:23;7.85;;;1.30;;
55813;SDS011;41743;43.012;-0.110;2022-10-31T11:16:51;6.35;;;1.08;;
55813;SDS011;41743;43.012;-0.110;2022-10-31T11:19:20;4.85;;;0.93;;
55813;SDS011;41743;43.012;-0.110;2022-10-31T11:21:47;11.90;;;1.10;;
55813;SDS011;41743;43.012;-0.110;2022-10-31T11:24:15;5.55;;;1.48;;
55813;SDS011;41743;43.012;-0.110;2022-10-31T11:26:41;4.80;;;1.00;;
55813;SDS011;41743;43.012;-0.110;2022-10-31T11:29:22;7.57;;;1.45;;
55813;SDS011;41743;43.012;-0.110;2022-10-31T11:31:50;5.63;;;1.52;;
55813;SDS011;41743;43.012;-0.110;2022-10-31T11:34:26;4.15;;;0.90;;
55813;SDS011;41743;43.012;-0.110;2022-10-31T11:36:53;10.05;;;1.38;;
55813;SDS011;41743;43.012;-0.110;2022-10-31T11:39:22;2.60;;;1.40;;
55813;SDS011;41743;43.012;-0.110;2022-10-31T11:41:49;8.55;;;1.08;;
55813;SDS011;41743;43.012;-0.110;2022-10-31T11:44:23;5.50;;;1.58;;
55813;SDS011;41743;43.012;-0.110;2022-10-31T11:46:51;7.40;;;1.70;;
55813;SDS011;41743;43.012;-0.110;2022-10-31T11:49:22;9.68;;;2.20;;
55813;SDS011;41743;43.012;-0.110;2022-10-31T11:51:51;9.05;;;1.30;;
55813;SDS011;41743;43.012;-0.110;2022-10-31T11:54:22;7.55;;;1.80;;
55813;SDS011;41743;43.012;-0.110;2022-10-31T11:56:49;9.45;;;1.80;;
55813;SDS011;41743;43.012;-0.110;2022-10-31T11:59:17;6.82;;;1.30;;
55813;SDS011;41743;43.012;-0.110;2022-10-31T12:01:48;10.05;;;1.70;;
55813;SDS011;41743;43.012;-0.110;2022-10-31T12:04:14;8.52;;;1.70;;
55813;SDS011;41743;43.012;-0.110;2022-10-31T12:06:42;7.28;;;1.60;;
55813;SDS011;41743;43.012;-0.110;2022-10-31T12:21:45;8.93;;;1.58;;
55813;SDS011;41743;43.012;-0.110;2022-10-31T12:24:21;8.23;;;1.48;;
55813;SDS011;41743;43.012;-0.110;2022-10-31T12:26:58;9.82;;;1.40;;
55813;SDS011;41743;43.012;-0.110;2022-10-31T13:00:51;11.73;;;2.83;;
55813;SDS011;41743;43.012;-0.110;2022-10-31T13:03:32;10.70;;;2.47;;
55813;SDS011;41743;43.012;-0.110;2022-10-31T13:06:03;13.43;;;3.10;;
55813;SDS011;41743;43.012;-0.110;2022-10-31T13:08:40;9.80;;;2.13;;
55813;SDS011;41743;43.012;-0.110;2022-10-31T13:11:10;14.98;;;3.08;;
55813;SDS011;41743;43.012;-0.110;2022-10-31T13:16:10;11.77;;;2.75;;
55813;SDS011;41743;43.012;-0.110;2022-10-31T13:18:43;16.13;;;2.35;;
55813;SDS011;41743;43.012;-0.110;2022-10-31T13:21:12;11.52;;;2.65;;
55813;SDS011;41743;43.012;-0.110;2022-10-31T13:23:39;14.27;;;2.20;;
55813;SDS011;41743;43.012;-0.110;2022-10-31T13:26:07;12.73;;;2.85;;
55813;SDS011;41743;43.012;-0.110;2022-10-31T13:28:40;9.02;;;2.03;;
55813;SDS011;41743;43.012;-0.110;2022-10-31T13:31:08;11.15;;;2.38;;
55813;SDS011;41743;43.012;-0.110;2022-10-31T13:33:48;11.15;;;2.30;;
55813;SDS011;41743;43.012;-0.110;2022-10-31T13:36:19;8.70;;;2.80;;
55813;SDS011;41743;43.012;-0.110;2022-10-31T13:48:59;17.90;;;2.90;;
55813;SDS011;41743;43.012;-0.110;2022-10-31T13:51:26;14.93;;;2.80;;
55813;SDS011;41743;43.012;-0.110;2022-10-31T13:56:32;16.05;;;2.35;;
55813;SDS011;41743;43.012;-0.110;2022-10-31T14:01:27;14.88;;;2.92;;
55813;SDS011;41743;43.012;-0.110;2022-10-31T14:06:37;16.80;;;3.03;;
55813;SDS011;41743;43.012;-0.110;2022-10-31T14:09:04;19.00;;;2.70;;
55813;SDS011;41743;43.012;-0.110;2022-10-31T14:11:30;12.98;;;2.47;;
55813;SDS011;41743;43.012;-0.110;2022-10-31T14:13:57;12.05;;;2.70;;
55813;SDS011;41743;43.012;-0.110;2022-10-31T14:16:30;16.13;;;3.92;;
55813;SDS011;41743;43.012;-0.110;2022-10-31T14:18:58;15.68;;;2.33;;
55813;SDS011;41743;43.012;-0.110;2022-10-31T14:21:36;12.20;;;2.47;;
55813;SDS011;41743;43.012;-0.110;2022-10-31T14:24:13;11.35;;;2.35;;
55813;SDS011;41743;43.012;-0.110;2022-10-31T14:26:39;11.48;;;2.17;;
55813;SDS011;41743;43.012;-0.110;2022-10-31T14:31:42;14.30;;;2.67;;
55813;SDS011;41743;43.012;-0.110;2022-10-31T14:34:18;24.67;;;2.70;;
55813;SDS011;41743;43.012;-0.110;2022-10-31T14:42:09;10.40;;;2.07;;
55813;SDS011;41743;43.012;-0.110;2022-10-31T14:45:04;10.93;;;1.92;;
55813;SDS011;41743;43.012;-0.110;2022-10-31T14:52:24;12.90;;;2.15;;
55813;SDS011;41743;43.012;-0.110;2022-10-31T14:54:53;14.65;;;2.05;;
55813;SDS011;41743;43.012;-0.110;2022-10-31T14:59:52;11.30;;;2.30;;
55813;SDS011;41743;43.012;-0.110;2022-10-31T15:02:24;16.17;;;2.30;;
55813;SDS011;41743;43.012;-0.110;2022-10-31T15:04:52;11.70;;;2.13;;
55813;SDS011;41743;43.012;-0.110;2022-10-31T15:07:24;10.65;;;1.90;;
55813;SDS011;41743;43.012;-0.110;2022-10-31T15:12:27;9.52;;;2.33;;
55813;SDS011;41743;43.012;-0.110;2022-10-31T15:14:53;8.57;;;1.67;;
55813;SDS011;41743;43.012;-0.110;2022-10-31T15:17:21;11.98;;;1.95;;
55813;SDS011;41743;43.012;-0.110;2022-10-31T15:19:47;10.32;;;2.22;;
55813;SDS011;41743;43.012;-0.110;2022-10-31T15:22:17;12.13;;;2.67;;
55813;SDS011;41743;43.012;-0.110;2022-10-31T15:24:44;13.43;;;2.60;;
55813;SDS011;41743;43.012;-0.110;2022-10-31T15:27:12;16.88;;;2.30;;
55813;SDS011;41743;43.012;-0.110;2022-10-31T15:29:46;11.30;;;2.05;;
55813;SDS011;41743;43.012;-0.110;2022-10-31T15:32:20;12.25;;;2.00;;
55813;SDS011;41743;43.012;-0.110;2022-10-31T15:34:47;13.82;;;2.28;;
55813;SDS011;41743;43.012;-0.110;2022-10-31T15:37:15;12.15;;;3.40;;
55813;SDS011;41743;43.012;-0.110;2022-10-31T15:39:42;6.93;;;1.90;;
55813;SDS011;41743;43.012;-0.110;2022-10-31T15:42:14;10.57;;;1.95;;
55813;SDS011;41743;43.012;-0.110;2022-10-31T15:44:44;8.85;;;2.08;;
55813;SDS011;41743;43.012;-0.110;2022-10-31T15:47:16;7.50;;;2.50;;
55813;SDS011;41743;43.012;-0.110;2022-10-31T15:49:55;9.57;;;1.95;;
55813;SDS011;41743;43.012;-0.110;2022-10-31T15:54:48;9.73;;;2.65;;
55813;SDS011;41743;43.012;-0.110;2022-10-31T15:57:15;7.13;;;1.50;;
55813;SDS011;41743;43.012;-0.110;2022-10-31T15:59:44;10.25;;;1.90;;
55813;SDS011;41743;43.012;-0.110;2022-10-31T16:02:12;9.52;;;1.40;;
55813;SDS011;41743;43.012;-0.110;2022-10-31T16:04:47;5.05;;;1.10;;
55813;SDS011;41743;43.012;-0.110;2022-10-31T16:07:14;8.18;;;1.40;;
55813;SDS011;41743;43.012;-0.110;2022-10-31T16:10:02;5.40;;;1.40;;
55813;SDS011;41743;43.012;-0.110;2022-10-31T16:12:36;6.97;;;1.48;;
55813;SDS011;41743;43.012;-0.110;2022-10-31T16:15:03;2.83;;;0.88;;
55813;SDS011;41743;43.012;-0.110;2022-10-31T16:17:30;5.95;;;1.27;;
55813;SDS011;41743;43.012;-0.110;2022-10-31T16:19:57;7.15;;;1.33;;
55813;SDS011;41743;43.012;-0.110;2022-10-31T16:22:26;8.38;;;1.63;;
55813;SDS011;41743;43.012;-0.110;2022-10-31T16:24:54;12.57;;;1.65;;
55813;SDS011;41743;43.012;-0.110;2022-10-31T16:27:22;7.95;;;1.75;;
55813;SDS011;41743;43.012;-0.110;2022-10-31T16:29:50;4.95;;;1.40;;
55813;SDS011;41743;43.012;-0.110;2022-10-31T16:32:36;13.20;;;1.90;;
55813;SDS011;41743;43.012;-0.110;2022-10-31T16:37:38;8.48;;;1.70;;
55813;SDS011;41743;43.012;-0.110;2022-10-31T16:40:04;4.88;;;1.67;;
55813;SDS011;41743;43.012;-0.110;2022-10-31T16:42:31;5.65;;;1.45;;
55813;SDS011;41743;43.012;-0.110;2022-10-31T16:44:58;7.10;;;1.25;;
55813;SDS011;41743;43.012;-0.110;2022-10-31T16:47:24;2.78;;;1.20;;
55813;SDS011;41743;43.012;-0.110;2022-10-31T16:49:50;7.75;;;1.48;;
55813;SDS011;41743;43.012;-0.110;2022-10-31T16:52:16;18.02;;;8.98;;
55813;SDS011;41743;43.012;-0.110;2022-10-31T16:54:42;6.35;;;1.92;;
55813;SDS011;41743;43.012;-0.110;2022-10-31T16:57:12;6.75;;;2.58;;